sensor_id;sensor_type;location;lat;lon;timestamp;P1;durP1;ratioP1;P2;durP2;ratioP2
54005;SDS011;39919;38.160;-122.260;2023-08-06T00:00:59;5.90;;;1.08;;
54005;SDS011;39919;38.160;-122.260;2023-08-06T00:03:30;12.80;;;1.20;;
54005;SDS011;39919;38.160;-122.260;2023-08-06T00:05:59;5.85;;;1.25;;
54005;SDS011;39919;38.160;-122.260;2023-08-06T00:08:27;7.57;;;1.20;;
54005;SDS011;39919;38.160;-122.260;2023-08-06T00:11:01;7.15;;;1.52;;
54005;SDS011;39919;38.160;-122.260;2023-08-06T00:13:30;5.40;;;1.48;;
54005;SDS011;39919;38.160;-122.260;2023-08-06T00:16:08;5.55;;;1.23;;
54005;SDS011;39919;38.160;-122.260;2023-08-06T00:18:40;3.53;;;0.90;;
54005;SDS011;39919;38.160;-122.260;2023-08-06T00:21:09;4.10;;;1.25;;
54005;SDS011;39919;38.160;-122.260;2023-08-06T00:23:39;3.38;;;1.25;;
54005;SDS011;39919;38.160;-122.260;2023-08-06T00:26:13;13.00;;;1.33;;
54005;SDS011;39919;38.160;-122.260;2023-08-06T00:28:42;3.90;;;0.82;;
54005;SDS011;39919;38.160;-122.260;2023-08-06T00:31:11;13.13;;;1.65;;
54005;SDS011;39919;38.160;-122.260;2023-08-06T00:33:40;7.82;;;1.45;;
54005;SDS011;39919;38.160;-122.260;2023-08-06T00:36:09;6.20;;;1.17;;
54005;SDS011;39919;38.160;-122.260;2023-08-06T00:38:41;7.63;;;1.10;;
54005;SDS011;39919;38.160;-122.260;2023-08-06T00:41:16;8.75;;;1.83;;
54005;SDS011;39919;38.160;-122.260;2023-08-06T00:43:45;8.18;;;1.58;;
54005;SDS011;39919;38.160;-122.260;2023-08-06T00:46:14;11.43;;;1.20;;
54005;SDS011;39919;38.160;-122.260;2023-08-06T00:48:43;6.97;;;1.40;;
54005;SDS011;39919;38.160;-122.260;2023-08-06T00:51:29;6.78;;;0.90;;
54005;SDS011;39919;38.160;-122.260;2023-08-06T00:53:59;4.78;;;1.20;;
54005;SDS011;39919;38.160;-122.260;2023-08-06T00:56:30;3.90;;;1.33;;
54005;SDS011;39919;38.160;-122.260;2023-08-06T00:59:03;8.93;;;1.50;;
54005;SDS011;39919;38.160;-122.260;2023-08-06T01:01:32;5.30;;;1.30;;
54005;SDS011;39919;38.160;-122.260;2023-08-06T01:04:04;6.05;;;1.80;;
54005;SDS011;39919;38.160;-122.260;2023-08-06T01:06:35;6.45;;;1.42;;
54005;SDS011;39919;38.160;-122.260;2023-08-06T01:09:16;7.97;;;1.52;;
54005;SDS011;39919;38.160;-122.260;2023-08-06T01:12:03;7.22;;;1.35;;
54005;SDS011;39919;38.160;-122.260;2023-08-06T01:14:40;6.10;;;1.70;;
54005;SDS011;39919;38.160;-122.260;2023-08-06T01:17:13;10.05;;;2.10;;
54005;SDS011;39919;38.160;-122.260;2023-08-06T01:19:44;5.60;;;1.77;;
54005;SDS011;39919;38.160;-122.260;2023-08-06T01:22:15;6.43;;;1.88;;
54005;SDS011;39919;38.160;-122.260;2023-08-06T01:24:52;3.85;;;1.10;;
54005;SDS011;39919;38.160;-122.260;2023-08-06T01:27:26;3.78;;;1.23;;
54005;SDS011;39919;38.160;-122.260;2023-08-06T01:30:02;5.45;;;1.33;;
54005;SDS011;39919;38.160;-122.260;2023-08-06T01:32:34;4.43;;;1.70;;
54005;SDS011;39919;38.160;-122.260;2023-08-06T01:35:07;6.97;;;1.20;;
54005;SDS011;39919;38.160;-122.260;2023-08-06T01:37:39;4.05;;;1.42;;
54005;SDS011;39919;38.160;-122.260;2023-08-06T01:40:10;6.80;;;1.45;;
54005;SDS011;39919;38.160;-122.260;2023-08-06T01:42:39;8.18;;;2.20;;
54005;SDS011;39919;38.160;-122.260;2023-08-06T01:45:09;4.30;;;1.20;;
54005;SDS011;39919;38.160;-122.260;2023-08-06T01:47:38;3.55;;;0.88;;
54005;SDS011;39919;38.160;-122.260;2023-08-06T01:50:08;4.75;;;1.00;;
54005;SDS011;39919;38.160;-122.260;2023-08-06T01:52:37;6.55;;;1.65;;
54005;SDS011;39919;38.160;-122.260;2023-08-06T01:55:11;8.52;;;1.65;;
54005;SDS011;39919;38.160;-122.260;2023-08-06T01:57:40;5.57;;;1.58;;
54005;SDS011;39919;38.160;-122.260;2023-08-06T02:00:09;5.05;;;1.40;;
54005;SDS011;39919;38.160;-122.260;2023-08-06T02:02:39;7.40;;;1.30;;
54005;SDS011;39919;38.160;-122.260;2023-08-06T02:05:09;6.75;;;1.38;;
54005;SDS011;39919;38.160;-122.260;2023-08-06T02:07:38;6.75;;;1.70;;
54005;SDS011;39919;38.160;-122.260;2023-08-06T02:10:09;6.90;;;1.45;;
54005;SDS011;39919;38.160;-122.260;2023-08-06T02:12:38;6.57;;;1.83;;
54005;SDS011;39919;38.160;-122.260;2023-08-06T02:15:07;6.45;;;1.70;;
54005;SDS011;39919;38.160;-122.260;2023-08-06T02:17:36;7.18;;;2.10;;
54005;SDS011;39919;38.160;-122.260;2023-08-06T02:20:06;11.70;;;2.03;;
54005;SDS011;39919;38.160;-122.260;2023-08-06T02:25:19;7.25;;;1.80;;
54005;SDS011;39919;38.160;-122.260;2023-08-06T02:27:50;11.30;;;1.90;;
54005;SDS011;39919;38.160;-122.260;2023-08-06T02:30:19;7.40;;;1.88;;
54005;SDS011;39919;38.160;-122.260;2023-08-06T02:32:48;5.32;;;1.25;;
54005;SDS011;39919;38.160;-122.260;2023-08-06T02:35:17;7.47;;;1.70;;
54005;SDS011;39919;38.160;-122.260;2023-08-06T02:37:46;9.60;;;1.98;;
54005;SDS011;39919;38.160;-122.260;2023-08-06T02:40:17;8.30;;;2.03;;
54005;SDS011;39919;38.160;-122.260;2023-08-06T02:42:46;6.38;;;1.58;;
54005;SDS011;39919;38.160;-122.260;2023-08-06T02:45:15;13.27;;;2.08;;
54005;SDS011;39919;38.160;-122.260;2023-08-06T02:47:45;9.80;;;1.92;;
54005;SDS011;39919;38.160;-122.260;2023-08-06T02:50:14;6.18;;;1.80;;
54005;SDS011;39919;38.160;-122.260;2023-08-06T02:52:46;9.55;;;1.73;;
54005;SDS011;39919;38.160;-122.260;2023-08-06T02:55:15;10.07;;;2.20;;
54005;SDS011;39919;38.160;-122.260;2023-08-06T02:57:46;14.52;;;2.80;;
54005;SDS011;39919;38.160;-122.260;2023-08-06T03:00:15;10.82;;;2.95;;
54005;SDS011;39919;38.160;-122.260;2023-08-06T03:02:44;6.88;;;1.67;;
54005;SDS011;39919;38.160;-122.260;2023-08-06T03:05:16;7.80;;;1.92;;
54005;SDS011;39919;38.160;-122.260;2023-08-06T03:07:45;8.45;;;2.15;;
54005;SDS011;39919;38.160;-122.260;2023-08-06T03:10:14;9.15;;;1.88;;
54005;SDS011;39919;38.160;-122.260;2023-08-06T03:12:48;12.95;;;1.70;;
54005;SDS011;39919;38.160;-122.260;2023-08-06T03:15:17;5.88;;;1.50;;
54005;SDS011;39919;38.160;-122.260;2023-08-06T03:17:46;4.68;;;1.30;;
54005;SDS011;39919;38.160;-122.260;2023-08-06T03:20:15;11.73;;;2.00;;
54005;SDS011;39919;38.160;-122.260;2023-08-06T03:22:45;12.45;;;2.63;;
54005;SDS011;39919;38.160;-122.260;2023-08-06T03:25:17;8.82;;;1.98;;
54005;SDS011;39919;38.160;-122.260;2023-08-06T03:27:46;8.50;;;1.38;;
54005;SDS011;39919;38.160;-122.260;2023-08-06T03:30:17;10.40;;;1.95;;
54005;SDS011;39919;38.160;-122.260;2023-08-06T03:32:46;11.05;;;2.13;;
54005;SDS011;39919;38.160;-122.260;2023-08-06T03:35:15;9.02;;;2.03;;
54005;SDS011;39919;38.160;-122.260;2023-08-06T03:37:44;10.30;;;1.88;;
54005;SDS011;39919;38.160;-122.260;2023-08-06T03:40:14;12.90;;;2.28;;
54005;SDS011;39919;38.160;-122.260;2023-08-06T03:42:43;12.65;;;2.13;;
54005;SDS011;39919;38.160;-122.260;2023-08-06T03:45:14;14.35;;;3.08;;
54005;SDS011;39919;38.160;-122.260;2023-08-06T03:47:43;11.73;;;2.78;;
54005;SDS011;39919;38.160;-122.260;2023-08-06T03:50:12;13.23;;;2.58;;
54005;SDS011;39919;38.160;-122.260;2023-08-06T03:52:42;11.20;;;2.45;;
54005;SDS011;39919;38.160;-122.260;2023-08-06T03:55:11;11.90;;;2.15;;
54005;SDS011;39919;38.160;-122.260;2023-08-06T03:57:40;13.73;;;2.90;;
54005;SDS011;39919;38.160;-122.260;2023-08-06T04:00:09;10.60;;;3.08;;
54005;SDS011;39919;38.160;-122.260;2023-08-06T04:02:40;15.73;;;2.83;;
54005;SDS011;39919;38.160;-122.260;2023-08-06T04:05:10;14.70;;;2.95;;
54005;SDS011;39919;38.160;-122.260;2023-08-06T04:07:39;10.32;;;1.83;;
54005;SDS011;39919;38.160;-122.260;2023-08-06T04:10:08;16.70;;;2.65;;
54005;SDS011;39919;38.160;-122.260;2023-08-06T04:12:38;17.92;;;2.95;;
54005;SDS011;39919;38.160;-122.260;2023-08-06T04:15:07;11.23;;;2.45;;
54005;SDS011;39919;38.160;-122.260;2023-08-06T04:17:37;21.77;;;4.93;;
54005;SDS011;39919;38.160;-122.260;2023-08-06T04:20:09;18.77;;;4.43;;
54005;SDS011;39919;38.160;-122.260;2023-08-06T04:22:38;10.80;;;2.42;;
54005;SDS011;39919;38.160;-122.260;2023-08-06T04:25:07;11.13;;;3.13;;
54005;SDS011;39919;38.160;-122.260;2023-08-06T04:27:37;14.45;;;2.92;;
54005;SDS011;39919;38.160;-122.260;2023-08-06T04:30:08;21.23;;;3.65;;
54005;SDS011;39919;38.160;-122.260;2023-08-06T04:32:38;13.82;;;3.30;;
54005;SDS011;39919;38.160;-122.260;2023-08-06T04:35:09;10.48;;;2.33;;
54005;SDS011;39919;38.160;-122.260;2023-08-06T04:37:39;14.65;;;3.47;;
54005;SDS011;39919;38.160;-122.260;2023-08-06T04:40:08;15.35;;;3.17;;
54005;SDS011;39919;38.160;-122.260;2023-08-06T04:42:39;14.38;;;3.08;;
54005;SDS011;39919;38.160;-122.260;2023-08-06T04:45:08;16.48;;;3.25;;
54005;SDS011;39919;38.160;-122.260;2023-08-06T04:47:37;12.10;;;2.60;;
54005;SDS011;39919;38.160;-122.260;2023-08-06T04:50:07;12.65;;;2.72;;
54005;SDS011;39919;38.160;-122.260;2023-08-06T04:52:40;15.98;;;3.47;;
54005;SDS011;39919;38.160;-122.260;2023-08-06T04:55:09;17.58;;;2.70;;
54005;SDS011;39919;38.160;-122.260;2023-08-06T04:57:39;17.05;;;3.58;;
54005;SDS011;39919;38.160;-122.260;2023-08-06T05:00:11;19.52;;;3.45;;
54005;SDS011;39919;38.160;-122.260;2023-08-06T05:02:40;21.90;;;4.03;;
54005;SDS011;39919;38.160;-122.260;2023-08-06T05:05:11;14.27;;;2.83;;
54005;SDS011;39919;38.160;-122.260;2023-08-06T05:07:40;14.45;;;2.97;;
54005;SDS011;39919;38.160;-122.260;2023-08-06T05:10:09;14.85;;;3.63;;
54005;SDS011;39919;38.160;-122.260;2023-08-06T05:12:38;21.23;;;3.03;;
54005;SDS011;39919;38.160;-122.260;2023-08-06T05:15:08;11.25;;;3.03;;
54005;SDS011;39919;38.160;-122.260;2023-08-06T05:17:37;8.95;;;2.08;;
54005;SDS011;39919;38.160;-122.260;2023-08-06T05:20:07;14.70;;;3.10;;
54005;SDS011;39919;38.160;-122.260;2023-08-06T05:22:38;12.50;;;3.47;;
54005;SDS011;39919;38.160;-122.260;2023-08-06T05:25:08;10.63;;;2.20;;
54005;SDS011;39919;38.160;-122.260;2023-08-06T05:27:37;19.75;;;4.20;;
54005;SDS011;39919;38.160;-122.260;2023-08-06T05:30:06;27.35;;;3.70;;
54005;SDS011;39919;38.160;-122.260;2023-08-06T05:32:36;12.52;;;2.28;;
54005;SDS011;39919;38.160;-122.260;2023-08-06T05:35:16;15.52;;;2.90;;
54005;SDS011;39919;38.160;-122.260;2023-08-06T05:37:50;18.13;;;2.80;;
54005;SDS011;39919;38.160;-122.260;2023-08-06T05:40:19;12.32;;;2.53;;
54005;SDS011;39919;38.160;-122.260;2023-08-06T05:42:48;3.20;;;1.30;;
54005;SDS011;39919;38.160;-122.260;2023-08-06T05:45:22;7.03;;;1.60;;
54005;SDS011;39919;38.160;-122.260;2023-08-06T05:48:01;4.97;;;1.48;;
54005;SDS011;39919;38.160;-122.260;2023-08-06T05:53:18;9.23;;;2.15;;
54005;SDS011;39919;38.160;-122.260;2023-08-06T05:55:52;13.70;;;2.60;;
54005;SDS011;39919;38.160;-122.260;2023-08-06T05:58:21;13.93;;;2.25;;
54005;SDS011;39919;38.160;-122.260;2023-08-06T06:00:54;11.55;;;1.85;;
54005;SDS011;39919;38.160;-122.260;2023-08-06T06:03:36;9.30;;;1.92;;
54005;SDS011;39919;38.160;-122.260;2023-08-06T06:06:05;10.88;;;1.95;;
54005;SDS011;39919;38.160;-122.260;2023-08-06T06:08:38;9.15;;;1.75;;
54005;SDS011;39919;38.160;-122.260;2023-08-06T06:11:07;14.70;;;2.38;;
54005;SDS011;39919;38.160;-122.260;2023-08-06T06:13:37;9.95;;;2.50;;
54005;SDS011;39919;38.160;-122.260;2023-08-06T06:16:08;12.13;;;2.55;;
54005;SDS011;39919;38.160;-122.260;2023-08-06T06:18:49;18.80;;;3.05;;
54005;SDS011;39919;38.160;-122.260;2023-08-06T06:21:18;7.15;;;1.55;;
54005;SDS011;39919;38.160;-122.260;2023-08-06T06:23:54;13.77;;;2.47;;
54005;SDS011;39919;38.160;-122.260;2023-08-06T06:26:23;11.88;;;2.08;;
54005;SDS011;39919;38.160;-122.260;2023-08-06T06:28:52;8.65;;;2.63;;
54005;SDS011;39919;38.160;-122.260;2023-08-06T06:31:21;14.25;;;1.95;;
54005;SDS011;39919;38.160;-122.260;2023-08-06T06:33:50;28.00;;;3.60;;
54005;SDS011;39919;38.160;-122.260;2023-08-06T06:36:20;23.45;;;3.90;;
54005;SDS011;39919;38.160;-122.260;2023-08-06T06:38:51;24.58;;;3.83;;
54005;SDS011;39919;38.160;-122.260;2023-08-06T06:41:22;17.92;;;4.13;;
54005;SDS011;39919;38.160;-122.260;2023-08-06T06:43:52;18.48;;;3.78;;
54005;SDS011;39919;38.160;-122.260;2023-08-06T06:46:21;17.05;;;3.10;;
54005;SDS011;39919;38.160;-122.260;2023-08-06T06:48:50;15.45;;;2.92;;
54005;SDS011;39919;38.160;-122.260;2023-08-06T06:51:19;15.30;;;2.90;;
54005;SDS011;39919;38.160;-122.260;2023-08-06T06:53:48;24.98;;;3.60;;
54005;SDS011;39919;38.160;-122.260;2023-08-06T06:56:19;15.90;;;2.42;;
54005;SDS011;39919;38.160;-122.260;2023-08-06T06:58:49;11.73;;;2.65;;
54005;SDS011;39919;38.160;-122.260;2023-08-06T07:01:18;12.73;;;2.35;;
54005;SDS011;39919;38.160;-122.260;2023-08-06T07:03:50;8.95;;;2.00;;
54005;SDS011;39919;38.160;-122.260;2023-08-06T07:06:19;13.02;;;2.72;;
54005;SDS011;39919;38.160;-122.260;2023-08-06T07:08:48;11.02;;;3.00;;
54005;SDS011;39919;38.160;-122.260;2023-08-06T07:11:19;17.17;;;5.35;;
54005;SDS011;39919;38.160;-122.260;2023-08-06T07:13:49;26.42;;;6.82;;
54005;SDS011;39919;38.160;-122.260;2023-08-06T07:16:24;17.83;;;4.68;;
54005;SDS011;39919;38.160;-122.260;2023-08-06T07:18:53;15.18;;;3.47;;
54005;SDS011;39919;38.160;-122.260;2023-08-06T07:21:23;15.93;;;2.65;;
54005;SDS011;39919;38.160;-122.260;2023-08-06T07:23:52;13.38;;;3.17;;
54005;SDS011;39919;38.160;-122.260;2023-08-06T07:26:23;15.38;;;3.33;;
54005;SDS011;39919;38.160;-122.260;2023-08-06T07:28:52;23.58;;;3.78;;
54005;SDS011;39919;38.160;-122.260;2023-08-06T07:31:21;13.23;;;2.55;;
54005;SDS011;39919;38.160;-122.260;2023-08-06T07:33:53;21.50;;;4.00;;
54005;SDS011;39919;38.160;-122.260;2023-08-06T07:36:22;17.90;;;3.40;;
54005;SDS011;39919;38.160;-122.260;2023-08-06T07:38:51;18.38;;;3.20;;
54005;SDS011;39919;38.160;-122.260;2023-08-06T07:41:24;15.63;;;3.10;;
54005;SDS011;39919;38.160;-122.260;2023-08-06T07:43:55;18.70;;;3.67;;
54005;SDS011;39919;38.160;-122.260;2023-08-06T07:46:24;16.75;;;3.28;;
54005;SDS011;39919;38.160;-122.260;2023-08-06T07:48:53;25.20;;;4.55;;
54005;SDS011;39919;38.160;-122.260;2023-08-06T07:51:23;20.65;;;4.32;;
54005;SDS011;39919;38.160;-122.260;2023-08-06T07:53:52;21.98;;;4.07;;
54005;SDS011;39919;38.160;-122.260;2023-08-06T07:56:21;30.42;;;5.85;;
54005;SDS011;39919;38.160;-122.260;2023-08-06T07:58:52;20.20;;;4.80;;
54005;SDS011;39919;38.160;-122.260;2023-08-06T08:01:21;23.35;;;4.45;;
54005;SDS011;39919;38.160;-122.260;2023-08-06T08:03:50;22.77;;;3.97;;
54005;SDS011;39919;38.160;-122.260;2023-08-06T08:06:19;27.75;;;3.90;;
54005;SDS011;39919;38.160;-122.260;2023-08-06T08:08:48;18.77;;;3.40;;
54005;SDS011;39919;38.160;-122.260;2023-08-06T08:11:18;22.23;;;3.38;;
54005;SDS011;39919;38.160;-122.260;2023-08-06T08:13:52;22.40;;;4.22;;
54005;SDS011;39919;38.160;-122.260;2023-08-06T08:16:23;18.65;;;3.78;;
54005;SDS011;39919;38.160;-122.260;2023-08-06T08:18:52;15.95;;;2.85;;
54005;SDS011;39919;38.160;-122.260;2023-08-06T08:21:21;25.13;;;3.50;;
54005;SDS011;39919;38.160;-122.260;2023-08-06T08:23:55;15.23;;;3.67;;
54005;SDS011;39919;38.160;-122.260;2023-08-06T08:26:24;18.30;;;3.35;;
54005;SDS011;39919;38.160;-122.260;2023-08-06T08:28:55;25.35;;;3.90;;
54005;SDS011;39919;38.160;-122.260;2023-08-06T08:31:24;19.60;;;2.92;;
54005;SDS011;39919;38.160;-122.260;2023-08-06T08:33:54;30.33;;;5.22;;
54005;SDS011;39919;38.160;-122.260;2023-08-06T08:36:24;18.23;;;3.08;;
54005;SDS011;39919;38.160;-122.260;2023-08-06T08:38:53;11.05;;;2.38;;
54005;SDS011;39919;38.160;-122.260;2023-08-06T08:41:23;17.00;;;2.60;;
54005;SDS011;39919;38.160;-122.260;2023-08-06T08:43:52;15.32;;;3.28;;
54005;SDS011;39919;38.160;-122.260;2023-08-06T08:46:23;10.90;;;2.38;;
54005;SDS011;39919;38.160;-122.260;2023-08-06T08:48:53;10.00;;;1.77;;
54005;SDS011;39919;38.160;-122.260;2023-08-06T08:51:23;22.33;;;3.85;;
54005;SDS011;39919;38.160;-122.260;2023-08-06T08:53:53;19.52;;;3.67;;
54005;SDS011;39919;38.160;-122.260;2023-08-06T08:56:23;19.02;;;3.38;;
54005;SDS011;39919;38.160;-122.260;2023-08-06T08:58:52;15.40;;;3.13;;
54005;SDS011;39919;38.160;-122.260;2023-08-06T09:01:23;16.35;;;2.70;;
54005;SDS011;39919;38.160;-122.260;2023-08-06T09:03:54;15.02;;;3.00;;
54005;SDS011;39919;38.160;-122.260;2023-08-06T09:06:26;20.95;;;4.15;;
54005;SDS011;39919;38.160;-122.260;2023-08-06T09:09:01;16.90;;;3.03;;
54005;SDS011;39919;38.160;-122.260;2023-08-06T09:11:35;27.98;;;3.83;;
54005;SDS011;39919;38.160;-122.260;2023-08-06T09:14:08;19.70;;;3.38;;
54005;SDS011;39919;38.160;-122.260;2023-08-06T09:16:38;20.17;;;3.90;;
54005;SDS011;39919;38.160;-122.260;2023-08-06T09:19:08;16.75;;;3.20;;
54005;SDS011;39919;38.160;-122.260;2023-08-06T09:21:38;16.95;;;2.83;;
54005;SDS011;39919;38.160;-122.260;2023-08-06T09:24:07;15.82;;;2.70;;
54005;SDS011;39919;38.160;-122.260;2023-08-06T09:26:37;21.48;;;4.05;;
54005;SDS011;39919;38.160;-122.260;2023-08-06T09:29:09;14.15;;;2.30;;
54005;SDS011;39919;38.160;-122.260;2023-08-06T09:31:45;18.95;;;4.72;;
54005;SDS011;39919;38.160;-122.260;2023-08-06T09:34:17;21.30;;;4.72;;
54005;SDS011;39919;38.160;-122.260;2023-08-06T09:36:48;16.90;;;2.78;;
54005;SDS011;39919;38.160;-122.260;2023-08-06T09:39:18;18.60;;;3.42;;
54005;SDS011;39919;38.160;-122.260;2023-08-06T09:41:47;29.05;;;4.13;;
54005;SDS011;39919;38.160;-122.260;2023-08-06T09:44:26;14.90;;;2.83;;
54005;SDS011;39919;38.160;-122.260;2023-08-06T09:47:10;22.73;;;3.70;;
54005;SDS011;39919;38.160;-122.260;2023-08-06T09:49:42;16.35;;;2.33;;
54005;SDS011;39919;38.160;-122.260;2023-08-06T09:52:11;11.15;;;1.73;;
54005;SDS011;39919;38.160;-122.260;2023-08-06T09:54:41;23.60;;;4.35;;
54005;SDS011;39919;38.160;-122.260;2023-08-06T09:57:17;16.55;;;2.88;;
54005;SDS011;39919;38.160;-122.260;2023-08-06T09:59:48;14.77;;;2.47;;
54005;SDS011;39919;38.160;-122.260;2023-08-06T10:02:18;13.82;;;3.63;;
54005;SDS011;39919;38.160;-122.260;2023-08-06T10:04:52;13.55;;;2.75;;
54005;SDS011;39919;38.160;-122.260;2023-08-06T10:07:23;26.13;;;4.65;;
54005;SDS011;39919;38.160;-122.260;2023-08-06T10:09:53;14.65;;;2.92;;
54005;SDS011;39919;38.160;-122.260;2023-08-06T10:12:22;12.85;;;2.90;;
54005;SDS011;39919;38.160;-122.260;2023-08-06T10:14:55;20.38;;;4.25;;
54005;SDS011;39919;38.160;-122.260;2023-08-06T10:17:27;29.60;;;6.25;;
54005;SDS011;39919;38.160;-122.260;2023-08-06T10:19:59;18.77;;;4.38;;
54005;SDS011;39919;38.160;-122.260;2023-08-06T10:22:28;21.10;;;4.18;;
54005;SDS011;39919;38.160;-122.260;2023-08-06T10:25:01;17.08;;;2.88;;
54005;SDS011;39919;38.160;-122.260;2023-08-06T10:27:32;22.92;;;4.47;;
54005;SDS011;39919;38.160;-122.260;2023-08-06T10:33:00;10.88;;;1.85;;
54005;SDS011;39919;38.160;-122.260;2023-08-06T10:35:31;11.05;;;1.60;;
54005;SDS011;39919;38.160;-122.260;2023-08-06T10:38:04;17.98;;;2.58;;
54005;SDS011;39919;38.160;-122.260;2023-08-06T10:40:35;12.65;;;2.55;;
54005;SDS011;39919;38.160;-122.260;2023-08-06T10:43:05;26.15;;;3.95;;
54005;SDS011;39919;38.160;-122.260;2023-08-06T10:45:37;10.93;;;3.20;;
54005;SDS011;39919;38.160;-122.260;2023-08-06T10:48:24;19.70;;;3.75;;
54005;SDS011;39919;38.160;-122.260;2023-08-06T10:50:59;13.40;;;2.60;;
54005;SDS011;39919;38.160;-122.260;2023-08-06T10:53:28;17.30;;;3.15;;
54005;SDS011;39919;38.160;-122.260;2023-08-06T10:55:58;16.77;;;2.55;;
54005;SDS011;39919;38.160;-122.260;2023-08-06T10:58:31;26.02;;;3.95;;
54005;SDS011;39919;38.160;-122.260;2023-08-06T11:01:02;17.38;;;3.90;;
54005;SDS011;39919;38.160;-122.260;2023-08-06T11:03:31;17.83;;;3.50;;
54005;SDS011;39919;38.160;-122.260;2023-08-06T11:06:01;27.75;;;4.22;;
54005;SDS011;39919;38.160;-122.260;2023-08-06T11:08:33;20.35;;;3.50;;
54005;SDS011;39919;38.160;-122.260;2023-08-06T11:11:09;21.80;;;4.20;;
54005;SDS011;39919;38.160;-122.260;2023-08-06T11:13:39;18.27;;;3.10;;
54005;SDS011;39919;38.160;-122.260;2023-08-06T11:16:09;18.27;;;3.08;;
54005;SDS011;39919;38.160;-122.260;2023-08-06T11:18:39;13.52;;;2.50;;
54005;SDS011;39919;38.160;-122.260;2023-08-06T11:21:09;25.55;;;4.45;;
54005;SDS011;39919;38.160;-122.260;2023-08-06T11:23:38;12.57;;;2.35;;
54005;SDS011;39919;38.160;-122.260;2023-08-06T11:26:08;19.08;;;3.13;;
54005;SDS011;39919;38.160;-122.260;2023-08-06T11:28:37;18.88;;;3.55;;
54005;SDS011;39919;38.160;-122.260;2023-08-06T11:31:09;26.90;;;4.25;;
54005;SDS011;39919;38.160;-122.260;2023-08-06T11:33:47;10.50;;;1.85;;
54005;SDS011;39919;38.160;-122.260;2023-08-06T11:36:27;23.73;;;4.03;;
54005;SDS011;39919;38.160;-122.260;2023-08-06T11:38:58;30.65;;;4.82;;
54005;SDS011;39919;38.160;-122.260;2023-08-06T11:41:28;22.40;;;3.97;;
54005;SDS011;39919;38.160;-122.260;2023-08-06T11:43:57;19.55;;;3.55;;
54005;SDS011;39919;38.160;-122.260;2023-08-06T11:46:28;9.95;;;1.35;;
54005;SDS011;39919;38.160;-122.260;2023-08-06T11:49:17;12.85;;;2.35;;
54005;SDS011;39919;38.160;-122.260;2023-08-06T11:51:50;11.32;;;2.58;;
54005;SDS011;39919;38.160;-122.260;2023-08-06T11:54:30;10.18;;;1.73;;
54005;SDS011;39919;38.160;-122.260;2023-08-06T11:57:00;16.92;;;3.22;;
54005;SDS011;39919;38.160;-122.260;2023-08-06T11:59:30;16.02;;;2.65;;
54005;SDS011;39919;38.160;-122.260;2023-08-06T12:02:03;19.13;;;3.55;;
54005;SDS011;39919;38.160;-122.260;2023-08-06T12:07:29;13.30;;;2.97;;
54005;SDS011;39919;38.160;-122.260;2023-08-06T12:09:58;4.88;;;1.00;;
54005;SDS011;39919;38.160;-122.260;2023-08-06T12:12:28;18.35;;;3.65;;
54005;SDS011;39919;38.160;-122.260;2023-08-06T12:14:57;14.98;;;3.08;;
54005;SDS011;39919;38.160;-122.260;2023-08-06T12:17:28;19.90;;;3.40;;
54005;SDS011;39919;38.160;-122.260;2023-08-06T12:19:57;12.45;;;2.35;;
54005;SDS011;39919;38.160;-122.260;2023-08-06T12:22:26;21.15;;;3.88;;
54005;SDS011;39919;38.160;-122.260;2023-08-06T12:24:58;17.63;;;3.63;;
54005;SDS011;39919;38.160;-122.260;2023-08-06T12:27:27;18.27;;;3.80;;
54005;SDS011;39919;38.160;-122.260;2023-08-06T12:29:58;24.25;;;3.45;;
54005;SDS011;39919;38.160;-122.260;2023-08-06T12:32:29;12.27;;;2.42;;
54005;SDS011;39919;38.160;-122.260;2023-08-06T12:34:58;16.33;;;2.72;;
54005;SDS011;39919;38.160;-122.260;2023-08-06T12:37:28;12.80;;;1.98;;
54005;SDS011;39919;38.160;-122.260;2023-08-06T12:39:57;16.30;;;3.10;;
54005;SDS011;39919;38.160;-122.260;2023-08-06T12:42:26;14.77;;;2.35;;
54005;SDS011;39919;38.160;-122.260;2023-08-06T12:44:55;11.35;;;2.20;;
54005;SDS011;39919;38.160;-122.260;2023-08-06T12:47:24;10.73;;;2.00;;
54005;SDS011;39919;38.160;-122.260;2023-08-06T12:49:55;12.35;;;2.33;;
54005;SDS011;39919;38.160;-122.260;2023-08-06T12:52:24;16.05;;;2.75;;
54005;SDS011;39919;38.160;-122.260;2023-08-06T12:54:53;17.02;;;3.28;;
54005;SDS011;39919;38.160;-122.260;2023-08-06T12:57:22;7.07;;;1.63;;
54005;SDS011;39919;38.160;-122.260;2023-08-06T12:59:52;4.40;;;0.90;;
54005;SDS011;39919;38.160;-122.260;2023-08-06T13:02:21;19.65;;;3.88;;
54005;SDS011;39919;38.160;-122.260;2023-08-06T13:04:57;17.45;;;3.90;;
54005;SDS011;39919;38.160;-122.260;2023-08-06T13:07:31;13.90;;;2.65;;
54005;SDS011;39919;38.160;-122.260;2023-08-06T13:10:00;19.10;;;3.75;;
54005;SDS011;39919;38.160;-122.260;2023-08-06T13:12:29;14.57;;;2.42;;
54005;SDS011;39919;38.160;-122.260;2023-08-06T13:14:58;16.20;;;2.92;;
54005;SDS011;39919;38.160;-122.260;2023-08-06T13:17:28;23.40;;;3.75;;
54005;SDS011;39919;38.160;-122.260;2023-08-06T13:19:58;17.52;;;3.60;;
54005;SDS011;39919;38.160;-122.260;2023-08-06T13:22:28;11.02;;;2.13;;
54005;SDS011;39919;38.160;-122.260;2023-08-06T13:24:57;4.30;;;0.73;;
54005;SDS011;39919;38.160;-122.260;2023-08-06T13:27:26;22.42;;;3.42;;
54005;SDS011;39919;38.160;-122.260;2023-08-06T13:29:55;11.48;;;1.73;;
54005;SDS011;39919;38.160;-122.260;2023-08-06T13:32:26;20.02;;;3.60;;
54005;SDS011;39919;38.160;-122.260;2023-08-06T13:34:55;15.45;;;3.15;;
54005;SDS011;39919;38.160;-122.260;2023-08-06T13:37:25;18.02;;;3.20;;
54005;SDS011;39919;38.160;-122.260;2023-08-06T13:39:55;21.38;;;3.88;;
54005;SDS011;39919;38.160;-122.260;2023-08-06T13:42:24;19.70;;;2.88;;
54005;SDS011;39919;38.160;-122.260;2023-08-06T13:44:53;17.42;;;2.42;;
54005;SDS011;39919;38.160;-122.260;2023-08-06T13:47:28;12.35;;;2.28;;
54005;SDS011;39919;38.160;-122.260;2023-08-06T13:49:57;17.50;;;4.45;;
54005;SDS011;39919;38.160;-122.260;2023-08-06T13:52:28;24.52;;;4.55;;
54005;SDS011;39919;38.160;-122.260;2023-08-06T13:54:57;13.90;;;3.10;;
54005;SDS011;39919;38.160;-122.260;2023-08-06T13:57:26;13.95;;;2.60;;
54005;SDS011;39919;38.160;-122.260;2023-08-06T13:59:55;16.75;;;3.35;;
54005;SDS011;39919;38.160;-122.260;2023-08-06T14:02:24;11.82;;;2.15;;
54005;SDS011;39919;38.160;-122.260;2023-08-06T14:04:53;11.07;;;1.60;;
54005;SDS011;39919;38.160;-122.260;2023-08-06T14:07:22;4.72;;;1.00;;
54005;SDS011;39919;38.160;-122.260;2023-08-06T14:09:58;4.55;;;0.65;;
54005;SDS011;39919;38.160;-122.260;2023-08-06T14:12:27;5.57;;;1.10;;
54005;SDS011;39919;38.160;-122.260;2023-08-06T14:14:56;6.50;;;0.63;;
54005;SDS011;39919;38.160;-122.260;2023-08-06T14:17:25;5.40;;;0.68;;
54005;SDS011;39919;38.160;-122.260;2023-08-06T14:22:39;8.80;;;1.42;;
54005;SDS011;39919;38.160;-122.260;2023-08-06T14:25:10;4.57;;;1.02;;
54005;SDS011;39919;38.160;-122.260;2023-08-06T14:27:40;15.48;;;2.92;;
54005;SDS011;39919;38.160;-122.260;2023-08-06T14:30:09;13.63;;;2.60;;
54005;SDS011;39919;38.160;-122.260;2023-08-06T14:32:41;9.32;;;1.48;;
54005;SDS011;39919;38.160;-122.260;2023-08-06T14:35:11;22.35;;;2.92;;